sensor_id;sensor_type;location;lat;lon;timestamp;temperature;humidity
63047;DHT22;62025;39.238;9.126;2022-11-15T00:02:29;18.50;71.90
63047;DHT22;62025;39.238;9.126;2022-11-15T00:05:14;18.50;71.90
63047;DHT22;62025;39.238;9.126;2022-11-15T00:07:58;18.50;71.90
63047;DHT22;62025;39.238;9.126;2022-11-15T00:10:46;18.40;72.10
63047;DHT22;62025;39.238;9.126;2022-11-15T00:13:38;18.60;71.60
63047;DHT22;62025;39.238;9.126;2022-11-15T00:16:23;18.40;71.70
63047;DHT22;62025;39.238;9.126;2022-11-15T00:19:08;18.30;71.90
63047;DHT22;62025;39.238;9.126;2022-11-15T00:21:53;18.20;71.90
63047;DHT22;62025;39.238;9.126;2022-11-15T00:24:37;18.10;72.40
63047;DHT22;62025;39.238;9.126;2022-11-15T00:27:22;18.40;71.40
63047;DHT22;62025;39.238;9.126;2022-11-15T00:30:07;18.20;72.00
63047;DHT22;62025;39.238;9.126;2022-11-15T00:32:52;18.30;72.00
63047;DHT22;62025;39.238;9.126;2022-11-15T00:35:36;18.30;71.70
63047;DHT22;62025;39.238;9.126;2022-11-15T00:38:21;18.20;71.80
63047;DHT22;62025;39.238;9.126;2022-11-15T00:41:07;18.00;72.70
63047;DHT22;62025;39.238;9.126;2022-11-15T00:43:52;17.90;73.20
63047;DHT22;62025;39.238;9.126;2022-11-15T00:46:36;18.00;72.80
63047;DHT22;62025;39.238;9.126;2022-11-15T00:49:21;18.10;72.90
63047;DHT22;62025;39.238;9.126;2022-11-15T00:52:06;18.00;73.20
63047;DHT22;62025;39.238;9.126;2022-11-15T00:54:50;18.00;73.20
63047;DHT22;62025;39.238;9.126;2022-11-15T00:57:35;17.90;73.90
63047;DHT22;62025;39.238;9.126;2022-11-15T01:00:20;17.90;73.70
63047;DHT22;62025;39.238;9.126;2022-11-15T01:03:05;18.00;73.50
63047;DHT22;62025;39.238;9.126;2022-11-15T01:05:49;18.00;73.40
63047;DHT22;62025;39.238;9.126;2022-11-15T01:08:35;18.20;73.00
63047;DHT22;62025;39.238;9.126;2022-11-15T01:11:20;18.20;72.50
63047;DHT22;62025;39.238;9.126;2022-11-15T01:14:04;18.10;72.70
63047;DHT22;62025;39.238;9.126;2022-11-15T01:16:49;18.00;72.90
63047;DHT22;62025;39.238;9.126;2022-11-15T01:19:33;18.00;72.80
63047;DHT22;62025;39.238;9.126;2022-11-15T01:22:18;18.00;72.80
63047;DHT22;62025;39.238;9.126;2022-11-15T01:25:03;18.20;72.50
63047;DHT22;62025;39.238;9.126;2022-11-15T01:27:48;18.30;72.20
63047;DHT22;62025;39.238;9.126;2022-11-15T01:30:32;18.10;72.80
63047;DHT22;62025;39.238;9.126;2022-11-15T01:33:17;18.30;72.10
63047;DHT22;62025;39.238;9.126;2022-11-15T01:36:11;18.10;72.70
63047;DHT22;62025;39.238;9.126;2022-11-15T01:39:00;18.30;72.20
63047;DHT22;62025;39.238;9.126;2022-11-15T01:41:45;18.10;72.50
63047;DHT22;62025;39.238;9.126;2022-11-15T01:44:48;18.00;72.30
63047;DHT22;62025;39.238;9.126;2022-11-15T01:47:40;18.10;71.90
63047;DHT22;62025;39.238;9.126;2022-11-15T01:50:31;18.00;71.70
63047;DHT22;62025;39.238;9.126;2022-11-15T01:53:17;17.80;72.50
63047;DHT22;62025;39.238;9.126;2022-11-15T01:56:05;17.80;72.10
63047;DHT22;62025;39.238;9.126;2022-11-15T01:58:52;17.60;72.90
63047;DHT22;62025;39.238;9.126;2022-11-15T02:01:39;17.80;72.60
63047;DHT22;62025;39.238;9.126;2022-11-15T02:04:27;17.70;72.60
63047;DHT22;62025;39.238;9.126;2022-11-15T02:07:15;17.80;72.40
63047;DHT22;62025;39.238;9.126;2022-11-15T02:10:19;17.80;72.10
63047;DHT22;62025;39.238;9.126;2022-11-15T02:13:05;17.80;72.30
63047;DHT22;62025;39.238;9.126;2022-11-15T02:16:11;17.60;72.70
63047;DHT22;62025;39.238;9.126;2022-11-15T02:19:29;17.80;72.00
63047;DHT22;62025;39.238;9.126;2022-11-15T02:34:57;18.00;71.60
63047;DHT22;62025;39.238;9.126;2022-11-15T02:38:14;18.00;72.00
63047;DHT22;62025;39.238;9.126;2022-11-15T02:41:06;17.80;72.30
63047;DHT22;62025;39.238;9.126;2022-11-15T02:44:02;17.90;72.20
63047;DHT22;62025;39.238;9.126;2022-11-15T02:46:52;17.80;72.50
63047;DHT22;62025;39.238;9.126;2022-11-15T02:50:00;17.90;72.30
63047;DHT22;62025;39.238;9.126;2022-11-15T02:52:51;17.70;72.80
63047;DHT22;62025;39.238;9.126;2022-11-15T02:55:38;17.80;72.40
63047;DHT22;62025;39.238;9.126;2022-11-15T02:58:57;17.80;72.80
63047;DHT22;62025;39.238;9.126;2022-11-15T03:08:32;17.80;72.60
63047;DHT22;62025;39.238;9.126;2022-11-15T03:11:45;17.90;72.10
63047;DHT22;62025;39.238;9.126;2022-11-15T03:14:42;18.00;71.90
63047;DHT22;62025;39.238;9.126;2022-11-15T03:18:22;18.00;71.80
63047;DHT22;62025;39.238;9.126;2022-11-15T03:21:19;18.10;71.70
63047;DHT22;62025;39.238;9.126;2022-11-15T03:24:07;18.00;71.70
63047;DHT22;62025;39.238;9.126;2022-11-15T03:26:53;18.00;71.90
63047;DHT22;62025;39.238;9.126;2022-11-15T03:29:43;18.00;71.70
63047;DHT22;62025;39.238;9.126;2022-11-15T03:32:34;17.90;72.00
63047;DHT22;62025;39.238;9.126;2022-11-15T03:35:23;17.90;72.20
63047;DHT22;62025;39.238;9.126;2022-11-15T03:38:26;17.90;72.40
63047;DHT22;62025;39.238;9.126;2022-11-15T03:41:19;17.80;72.80
63047;DHT22;62025;39.238;9.126;2022-11-15T03:47:23;17.90;72.30
63047;DHT22;62025;39.238;9.126;2022-11-15T03:50:17;17.90;72.20
63047;DHT22;62025;39.238;9.126;2022-11-15T03:53:03;18.00;72.10
63047;DHT22;62025;39.238;9.126;2022-11-15T03:55:48;18.00;72.00
63047;DHT22;62025;39.238;9.126;2022-11-15T03:58:32;18.00;72.30
63047;DHT22;62025;39.238;9.126;2022-11-15T04:01:17;17.90;72.60
63047;DHT22;62025;39.238;9.126;2022-11-15T04:04:02;17.90;72.60
63047;DHT22;62025;39.238;9.126;2022-11-15T04:06:46;17.90;72.50
63047;DHT22;62025;39.238;9.126;2022-11-15T04:09:31;17.90;72.70
63047;DHT22;62025;39.238;9.126;2022-11-15T04:12:16;17.90;72.80
63047;DHT22;62025;39.238;9.126;2022-11-15T04:15:21;17.90;72.70
63047;DHT22;62025;39.238;9.126;2022-11-15T04:18:07;18.00;72.30
63047;DHT22;62025;39.238;9.126;2022-11-15T04:20:51;17.90;72.70
63047;DHT22;62025;39.238;9.126;2022-11-15T04:23:54;17.90;72.80
63047;DHT22;62025;39.238;9.126;2022-11-15T04:26:39;17.90;72.90
63047;DHT22;62025;39.238;9.126;2022-11-15T04:29:23;17.90;72.90
63047;DHT22;62025;39.238;9.126;2022-11-15T04:32:20;17.90;72.90
63047;DHT22;62025;39.238;9.126;2022-11-15T04:35:05;17.90;73.00
63047;DHT22;62025;39.238;9.126;2022-11-15T04:37:51;17.90;73.20
63047;DHT22;62025;39.238;9.126;2022-11-15T04:40:37;17.80;73.20
63047;DHT22;62025;39.238;9.126;2022-11-15T04:43:22;17.80;73.10
63047;DHT22;62025;39.238;9.126;2022-11-15T04:46:06;17.70;73.40
63047;DHT22;62025;39.238;9.126;2022-11-15T04:48:52;17.70;73.30
63047;DHT22;62025;39.238;9.126;2022-11-15T04:51:37;17.80;73.20
63047;DHT22;62025;39.238;9.126;2022-11-15T04:54:21;17.80;73.10
63047;DHT22;62025;39.238;9.126;2022-11-15T04:57:06;17.80;73.30
63047;DHT22;62025;39.238;9.126;2022-11-15T04:59:50;17.90;72.90
63047;DHT22;62025;39.238;9.126;2022-11-15T05:02:35;17.80;72.80
63047;DHT22;62025;39.238;9.126;2022-11-15T05:05:38;17.80;72.80
63047;DHT22;62025;39.238;9.126;2022-11-15T05:08:23;17.90;72.50
63047;DHT22;62025;39.238;9.126;2022-11-15T05:11:08;17.90;72.20
63047;DHT22;62025;39.238;9.126;2022-11-15T05:13:53;17.80;72.40
63047;DHT22;62025;39.238;9.126;2022-11-15T05:16:38;17.70;73.10
63047;DHT22;62025;39.238;9.126;2022-11-15T05:19:23;17.80;72.80
63047;DHT22;62025;39.238;9.126;2022-11-15T05:22:08;17.80;72.70
63047;DHT22;62025;39.238;9.126;2022-11-15T05:24:52;17.80;72.70
63047;DHT22;62025;39.238;9.126;2022-11-15T05:27:37;17.90;72.40
63047;DHT22;62025;39.238;9.126;2022-11-15T05:30:21;17.80;72.70
63047;DHT22;62025;39.238;9.126;2022-11-15T05:33:06;17.80;72.60
63047;DHT22;62025;39.238;9.126;2022-11-15T05:35:56;17.80;72.70
63047;DHT22;62025;39.238;9.126;2022-11-15T05:38:45;17.80;72.70
63047;DHT22;62025;39.238;9.126;2022-11-15T05:41:36;17.80;72.60
63047;DHT22;62025;39.238;9.126;2022-11-15T05:44:24;17.70;72.90
63047;DHT22;62025;39.238;9.126;2022-11-15T05:47:20;17.50;73.30
63047;DHT22;62025;39.238;9.126;2022-11-15T05:50:08;17.50;73.40
63047;DHT22;62025;39.238;9.126;2022-11-15T05:52:56;17.50;73.40
63047;DHT22;62025;39.238;9.126;2022-11-15T05:55:41;17.40;73.60
63047;DHT22;62025;39.238;9.126;2022-11-15T05:58:26;17.50;73.60
63047;DHT22;62025;39.238;9.126;2022-11-15T06:01:11;17.60;72.90
63047;DHT22;62025;39.238;9.126;2022-11-15T06:03:55;17.60;73.10
63047;DHT22;62025;39.238;9.126;2022-11-15T06:06:40;17.50;73.40
63047;DHT22;62025;39.238;9.126;2022-11-15T06:09:25;17.60;73.20
63047;DHT22;62025;39.238;9.126;2022-11-15T06:12:10;17.50;73.10
63047;DHT22;62025;39.238;9.126;2022-11-15T06:14:54;17.50;73.20
63047;DHT22;62025;39.238;9.126;2022-11-15T06:17:39;17.40;73.40
63047;DHT22;62025;39.238;9.126;2022-11-15T06:20:25;17.60;72.90
63047;DHT22;62025;39.238;9.126;2022-11-15T06:23:09;17.60;73.00
63047;DHT22;62025;39.238;9.126;2022-11-15T06:25:58;17.50;73.10
63047;DHT22;62025;39.238;9.126;2022-11-15T06:28:42;17.50;73.00
63047;DHT22;62025;39.238;9.126;2022-11-15T06:31:27;17.40;73.00
63047;DHT22;62025;39.238;9.126;2022-11-15T06:34:12;17.40;73.20
63047;DHT22;62025;39.238;9.126;2022-11-15T06:36:56;17.40;73.00
63047;DHT22;62025;39.238;9.126;2022-11-15T06:39:41;17.40;73.00
63047;DHT22;62025;39.238;9.126;2022-11-15T06:42:26;17.40;72.90
63047;DHT22;62025;39.238;9.126;2022-11-15T06:45:10;17.60;72.20
63047;DHT22;62025;39.238;9.126;2022-11-15T06:47:55;17.70;72.10
63047;DHT22;62025;39.238;9.126;2022-11-15T06:50:39;17.70;71.70
63047;DHT22;62025;39.238;9.126;2022-11-15T06:53:25;17.60;71.80
63047;DHT22;62025;39.238;9.126;2022-11-15T06:56:10;17.60;71.60
63047;DHT22;62025;39.238;9.126;2022-11-15T06:58:55;17.40;72.20
63047;DHT22;62025;39.238;9.126;2022-11-15T07:01:40;17.40;72.20
63047;DHT22;62025;39.238;9.126;2022-11-15T07:04:25;17.50;71.90
63047;DHT22;62025;39.238;9.126;2022-11-15T07:07:09;17.50;71.70
63047;DHT22;62025;39.238;9.126;2022-11-15T07:09:54;17.40;71.70
63047;DHT22;62025;39.238;9.126;2022-11-15T07:12:38;17.40;72.10
63047;DHT22;62025;39.238;9.126;2022-11-15T07:15:25;17.30;72.30
63047;DHT22;62025;39.238;9.126;2022-11-15T07:18:10;17.40;72.20
63047;DHT22;62025;39.238;9.126;2022-11-15T07:20:55;17.60;71.50
63047;DHT22;62025;39.238;9.126;2022-11-15T07:23:39;17.50;71.90
63047;DHT22;62025;39.238;9.126;2022-11-15T07:26:24;17.40;72.20
63047;DHT22;62025;39.238;9.126;2022-11-15T07:29:09;17.50;71.90
63047;DHT22;62025;39.238;9.126;2022-11-15T07:31:54;17.70;71.70
63047;DHT22;62025;39.238;9.126;2022-11-15T07:34:39;18.00;70.80
63047;DHT22;62025;39.238;9.126;2022-11-15T07:37:23;18.10;70.50
63047;DHT22;62025;39.238;9.126;2022-11-15T07:40:08;18.40;69.70
63047;DHT22;62025;39.238;9.126;2022-11-15T07:43:00;18.30;69.70
63047;DHT22;62025;39.238;9.126;2022-11-15T07:45:49;18.00;70.70
63047;DHT22;62025;39.238;9.126;2022-11-15T07:48:33;17.80;71.40
63047;DHT22;62025;39.238;9.126;2022-11-15T07:51:18;17.90;71.70
63047;DHT22;62025;39.238;9.126;2022-11-15T07:54:02;18.30;70.70
63047;DHT22;62025;39.238;9.126;2022-11-15T07:56:47;18.90;69.10
63047;DHT22;62025;39.238;9.126;2022-11-15T07:59:32;19.70;67.60
63047;DHT22;62025;39.238;9.126;2022-11-15T08:02:17;20.20;66.20
63047;DHT22;62025;39.238;9.126;2022-11-15T08:05:01;20.50;64.90
63047;DHT22;62025;39.238;9.126;2022-11-15T08:07:46;20.40;64.80
63047;DHT22;62025;39.238;9.126;2022-11-15T08:10:31;20.30;65.40
63047;DHT22;62025;39.238;9.126;2022-11-15T08:13:16;20.30;65.80
63047;DHT22;62025;39.238;9.126;2022-11-15T08:16:02;20.60;64.80
63047;DHT22;62025;39.238;9.126;2022-11-15T08:18:49;20.90;64.40
63047;DHT22;62025;39.238;9.126;2022-11-15T08:21:33;21.00;63.80
63047;DHT22;62025;39.238;9.126;2022-11-15T08:24:19;21.20;63.70
63047;DHT22;62025;39.238;9.126;2022-11-15T08:27:04;21.50;62.80
63047;DHT22;62025;39.238;9.126;2022-11-15T08:29:58;21.90;61.90
63047;DHT22;62025;39.238;9.126;2022-11-15T08:32:43;22.10;61.80
63047;DHT22;62025;39.238;9.126;2022-11-15T08:35:28;22.40;61.00
63047;DHT22;62025;39.238;9.126;2022-11-15T08:38:13;22.50;60.70
63047;DHT22;62025;39.238;9.126;2022-11-15T08:41:03;22.40;61.00
63047;DHT22;62025;39.238;9.126;2022-11-15T08:43:48;22.50;60.90
63047;DHT22;62025;39.238;9.126;2022-11-15T08:46:33;22.70;60.80
63047;DHT22;62025;39.238;9.126;2022-11-15T08:49:18;22.80;60.60
63047;DHT22;62025;39.238;9.126;2022-11-15T08:52:03;22.80;61.10
63047;DHT22;62025;39.238;9.126;2022-11-15T08:54:47;22.70;61.50
63047;DHT22;62025;39.238;9.126;2022-11-15T08:57:32;22.60;61.90
63047;DHT22;62025;39.238;9.126;2022-11-15T09:00:17;22.90;61.40
63047;DHT22;62025;39.238;9.126;2022-11-15T09:03:05;23.10;61.20
63047;DHT22;62025;39.238;9.126;2022-11-15T09:05:55;23.00;62.40
63047;DHT22;62025;39.238;9.126;2022-11-15T09:08:44;22.40;63.90
63047;DHT22;62025;39.238;9.126;2022-11-15T09:11:28;21.80;66.40
63047;DHT22;62025;39.238;9.126;2022-11-15T09:14:14;21.90;67.10
63047;DHT22;62025;39.238;9.126;2022-11-15T09:16:58;22.40;66.00
63047;DHT22;62025;39.238;9.126;2022-11-15T09:19:43;23.10;65.00
63047;DHT22;62025;39.238;9.126;2022-11-15T09:22:28;22.80;65.30
63047;DHT22;62025;39.238;9.126;2022-11-15T09:25:12;22.30;66.90
63047;DHT22;62025;39.238;9.126;2022-11-15T09:27:57;22.50;67.00
63047;DHT22;62025;39.238;9.126;2022-11-15T09:30:42;22.90;66.40
63047;DHT22;62025;39.238;9.126;2022-11-15T09:33:27;23.10;66.30
63047;DHT22;62025;39.238;9.126;2022-11-15T09:36:12;23.70;64.90
63047;DHT22;62025;39.238;9.126;2022-11-15T09:39:00;23.60;65.10
63047;DHT22;62025;39.238;9.126;2022-11-15T09:45:15;23.40;65.90
63047;DHT22;62025;39.238;9.126;2022-11-15T09:51:52;23.80;64.50
63047;DHT22;62025;39.238;9.126;2022-11-15T09:54:38;23.10;66.40
63047;DHT22;62025;39.238;9.126;2022-11-15T10:05:04;23.30;66.10
63047;DHT22;62025;39.238;9.126;2022-11-15T10:08:10;23.70;65.10
63047;DHT22;62025;39.238;9.126;2022-11-15T10:10:44;23.10;66.90
63047;DHT22;62025;39.238;9.126;2022-11-15T10:13:33;23.30;66.70
63047;DHT22;62025;39.238;9.126;2022-11-15T10:16:36;23.60;65.90
63047;DHT22;62025;39.238;9.126;2022-11-15T10:25:13;23.10;68.00
63047;DHT22;62025;39.238;9.126;2022-11-15T10:31:10;22.60;69.50
63047;DHT22;62025;39.238;9.126;2022-11-15T10:34:16;22.90;69.40
63047;DHT22;62025;39.238;9.126;2022-11-15T10:36:57;22.70;69.00
63047;DHT22;62025;39.238;9.126;2022-11-15T10:39:25;22.30;70.80
63047;DHT22;62025;39.238;9.126;2022-11-15T10:41:51;22.30;70.30
63047;DHT22;62025;39.238;9.126;2022-11-15T10:44:18;22.40;70.60
63047;DHT22;62025;39.238;9.126;2022-11-15T10:49:29;22.00;71.50
63047;DHT22;62025;39.238;9.126;2022-11-15T10:51:58;22.00;71.40
63047;DHT22;62025;39.238;9.126;2022-11-15T10:54:28;22.30;70.70
63047;DHT22;62025;39.238;9.126;2022-11-15T10:56:58;22.30;70.00
63047;DHT22;62025;39.238;9.126;2022-11-15T10:59:32;22.50;69.90
63047;DHT22;62025;39.238;9.126;2022-11-15T11:02:02;22.70;69.40
63047;DHT22;62025;39.238;9.126;2022-11-15T11:04:28;22.70;68.80
63047;DHT22;62025;39.238;9.126;2022-11-15T11:06:58;22.60;69.20
63047;DHT22;62025;39.238;9.126;2022-11-15T11:09:34;22.40;69.50
63047;DHT22;62025;39.238;9.126;2022-11-15T11:12:03;22.10;70.10
63047;DHT22;62025;39.238;9.126;2022-11-15T11:14:32;22.00;70.70
63047;DHT22;62025;39.238;9.126;2022-11-15T11:22:27;22.00;71.40
63047;DHT22;62025;39.238;9.126;2022-11-15T11:33:46;22.20;70.30
63047;DHT22;62025;39.238;9.126;2022-11-15T11:36:27;22.20;69.10
63047;DHT22;62025;39.238;9.126;2022-11-15T11:44:28;21.90;70.10
63047;DHT22;62025;39.238;9.126;2022-11-15T11:48:23;21.70;70.30
63047;DHT22;62025;39.238;9.126;2022-11-15T11:50:29;21.60;70.40
63047;DHT22;62025;39.238;9.126;2022-11-15T11:53:35;21.50;71.20
63047;DHT22;62025;39.238;9.126;2022-11-15T11:56:33;21.60;71.00
63047;DHT22;62025;39.238;9.126;2022-11-15T11:59:05;21.70;70.40
63047;DHT22;62025;39.238;9.126;2022-11-15T12:01:39;21.70;70.30
63047;DHT22;62025;39.238;9.126;2022-11-15T12:04:38;21.70;70.70
63047;DHT22;62025;39.238;9.126;2022-11-15T12:07:17;21.70;71.00
63047;DHT22;62025;39.238;9.126;2022-11-15T12:10:29;21.60;71.40
63047;DHT22;62025;39.238;9.126;2022-11-15T12:13:00;21.50;71.70
63047;DHT22;62025;39.238;9.126;2022-11-15T12:18:49;21.50;71.80
63047;DHT22;62025;39.238;9.126;2022-11-15T12:24:13;21.40;71.60
63047;DHT22;62025;39.238;9.126;2022-11-15T12:26:47;21.50;72.10
63047;DHT22;62025;39.238;9.126;2022-11-15T12:29:37;21.60;70.50
63047;DHT22;62025;39.238;9.126;2022-11-15T12:32:34;21.60;70.70
63047;DHT22;62025;39.238;9.126;2022-11-15T12:35:02;21.50;70.30
63047;DHT22;62025;39.238;9.126;2022-11-15T12:45:27;21.30;71.90
63047;DHT22;62025;39.238;9.126;2022-11-15T12:53:31;21.30;73.50
63047;DHT22;62025;39.238;9.126;2022-11-15T12:59:02;21.30;72.70
63047;DHT22;62025;39.238;9.126;2022-11-15T13:07:03;21.20;73.20
63047;DHT22;62025;39.238;9.126;2022-11-15T13:20:19;21.30;72.00
63047;DHT22;62025;39.238;9.126;2022-11-15T13:33:39;21.30;73.60
63047;DHT22;62025;39.238;9.126;2022-11-15T13:38:57;21.10;74.40
63047;DHT22;62025;39.238;9.126;2022-11-15T13:41:33;21.10;73.90
63047;DHT22;62025;39.238;9.126;2022-11-15T13:44:02;21.10;73.50
63047;DHT22;62025;39.238;9.126;2022-11-15T13:46:31;21.20;73.00
63047;DHT22;62025;39.238;9.126;2022-11-15T13:49:08;21.10;72.30
63047;DHT22;62025;39.238;9.126;2022-11-15T13:54:47;21.30;72.70
63047;DHT22;62025;39.238;9.126;2022-11-15T13:57:19;21.20;73.20
63047;DHT22;62025;39.238;9.126;2022-11-15T14:00:01;21.10;73.60
63047;DHT22;62025;39.238;9.126;2022-11-15T14:02:37;21.20;74.00
63047;DHT22;62025;39.238;9.126;2022-11-15T14:05:19;21.20;73.50
63047;DHT22;62025;39.238;9.126;2022-11-15T14:07:57;21.10;73.30
63047;DHT22;62025;39.238;9.126;2022-11-15T14:12:59;21.10;73.70
63047;DHT22;62025;39.238;9.126;2022-11-15T14:15:32;21.10;73.90
63047;DHT22;62025;39.238;9.126;2022-11-15T14:17:59;21.10;74.70
63047;DHT22;62025;39.238;9.126;2022-11-15T14:20:37;21.10;74.90
63047;DHT22;62025;39.238;9.126;2022-11-15T14:23:27;21.10;74.80
63047;DHT22;62025;39.238;9.126;2022-11-15T14:25:56;21.00;75.70
63047;DHT22;62025;39.238;9.126;2022-11-15T14:30:53;21.10;75.30
63047;DHT22;62025;39.238;9.126;2022-11-15T14:33:32;21.00;75.30
63047;DHT22;62025;39.238;9.126;2022-11-15T14:36:10;21.00;75.80
63047;DHT22;62025;39.238;9.126;2022-11-15T14:38:38;21.00;75.60
63047;DHT22;62025;39.238;9.126;2022-11-15T14:41:04;21.00;75.70
63047;DHT22;62025;39.238;9.126;2022-11-15T14:43:31;20.90;75.80
63047;DHT22;62025;39.238;9.126;2022-11-15T14:45:57;20.90;76.10
63047;DHT22;62025;39.238;9.126;2022-11-15T14:48:23;20.90;76.10
63047;DHT22;62025;39.238;9.126;2022-11-15T14:50:49;20.90;75.90
63047;DHT22;62025;39.238;9.126;2022-11-15T14:53:17;20.90;75.90
63047;DHT22;62025;39.238;9.126;2022-11-15T14:55:43;21.00;75.70
63047;DHT22;62025;39.238;9.126;2022-11-15T14:58:10;20.90;75.70
63047;DHT22;62025;39.238;9.126;2022-11-15T15:00:37;21.00;75.90
63047;DHT22;62025;39.238;9.126;2022-11-15T15:03:05;21.00;75.80
63047;DHT22;62025;39.238;9.126;2022-11-15T15:05:43;20.90;76.20
63047;DHT22;62025;39.238;9.126;2022-11-15T15:08:09;20.90;76.40
63047;DHT22;62025;39.238;9.126;2022-11-15T15:10:42;20.90;76.20
63047;DHT22;62025;39.238;9.126;2022-11-15T15:13:21;20.90;76.10
63047;DHT22;62025;39.238;9.126;2022-11-15T15:15:49;20.90;75.70
63047;DHT22;62025;39.238;9.126;2022-11-15T15:18:17;20.90;75.50
63047;DHT22;62025;39.238;9.126;2022-11-15T15:20:44;20.90;75.60
63047;DHT22;62025;39.238;9.126;2022-11-15T15:23:16;20.90;76.00
63047;DHT22;62025;39.238;9.126;2022-11-15T15:25:47;20.90;76.70
63047;DHT22;62025;39.238;9.126;2022-11-15T15:28:15;20.80;76.60
63047;DHT22;62025;39.238;9.126;2022-11-15T15:30:41;20.90;76.70
63047;DHT22;62025;39.238;9.126;2022-11-15T15:33:07;20.80;76.80
63047;DHT22;62025;39.238;9.126;2022-11-15T15:35:34;20.80;76.80
63047;DHT22;62025;39.238;9.126;2022-11-15T15:38:01;20.80;77.00
63047;DHT22;62025;39.238;9.126;2022-11-15T15:40:29;20.80;77.10
63047;DHT22;62025;39.238;9.126;2022-11-15T15:42:57;20.80;77.10
63047;DHT22;62025;39.238;9.126;2022-11-15T15:45:25;20.70;77.00
63047;DHT22;62025;39.238;9.126;2022-11-15T15:47:52;20.80;76.80
63047;DHT22;62025;39.238;9.126;2022-11-15T15:50:31;20.80;76.50
63047;DHT22;62025;39.238;9.126;2022-11-15T15:53:00;20.90;76.30
63047;DHT22;62025;39.238;9.126;2022-11-15T15:55:27;20.80;76.10
63047;DHT22;62025;39.238;9.126;2022-11-15T15:57:54;20.80;75.90
63047;DHT22;62025;39.238;9.126;2022-11-15T16:00:22;20.80;75.90
63047;DHT22;62025;39.238;9.126;2022-11-15T16:02:51;20.80;76.00
63047;DHT22;62025;39.238;9.126;2022-11-15T16:05:17;20.80;75.40
63047;DHT22;62025;39.238;9.126;2022-11-15T16:07:44;20.90;75.10
63047;DHT22;62025;39.238;9.126;2022-11-15T16:12:47;20.80;74.80
63047;DHT22;62025;39.238;9.126;2022-11-15T16:15:14;20.80;74.60
63047;DHT22;62025;39.238;9.126;2022-11-15T16:17:54;20.80;74.20
63047;DHT22;62025;39.238;9.126;2022-11-15T16:23:22;20.80;72.70
63047;DHT22;62025;39.238;9.126;2022-11-15T16:25:51;20.70;72.40
63047;DHT22;62025;39.238;9.126;2022-11-15T16:28:25;20.70;72.20
63047;DHT22;62025;39.238;9.126;2022-11-15T16:31:07;20.70;72.70
63047;DHT22;62025;39.238;9.126;2022-11-15T16:33:35;20.70;72.20
63047;DHT22;62025;39.238;9.126;2022-11-15T16:36:02;20.80;72.00
63047;DHT22;62025;39.238;9.126;2022-11-15T16:38:29;20.70;72.30
63047;DHT22;62025;39.238;9.126;2022-11-15T16:40:55;20.70;71.80
63047;DHT22;62025;39.238;9.126;2022-11-15T16:43:21;20.70;71.60
63047;DHT22;62025;39.238;9.126;2022-11-15T16:45:49;20.70;71.60
63047;DHT22;62025;39.238;9.126;2022-11-15T16:48:26;20.60;71.50
63047;DHT22;62025;39.238;9.126;2022-11-15T16:50:57;20.60;71.20
63047;DHT22;62025;39.238;9.126;2022-11-15T16:53:27;20.60;71.30
63047;DHT22;62025;39.238;9.126;2022-11-15T16:55:54;20.60;71.40
63047;DHT22;62025;39.238;9.126;2022-11-15T16:58:21;20.60;71.10
63047;DHT22;62025;39.238;9.126;2022-11-15T17:00:55;20.60;71.40
63047;DHT22;62025;39.238;9.126;2022-11-15T17:03:22;20.60;71.10
63047;DHT22;62025;39.238;9.126;2022-11-15T17:05:49;20.50;71.90
63047;DHT22;62025;39.238;9.126;2022-11-15T17:08:16;20.40;73.40
63047;DHT22;62025;39.238;9.126;2022-11-15T17:10:42;20.40;75.00
63047;DHT22;62025;39.238;9.126;2022-11-15T17:13:11;20.30;75.50
63047;DHT22;62025;39.238;9.126;2022-11-15T17:15:38;20.40;75.30
63047;DHT22;62025;39.238;9.126;2022-11-15T17:18:05;20.30;75.80
63047;DHT22;62025;39.238;9.126;2022-11-15T17:20:31;20.30;76.30
63047;DHT22;62025;39.238;9.126;2022-11-15T17:22:57;20.30;76.70
63047;DHT22;62025;39.238;9.126;2022-11-15T17:25:23;20.20;77.10
63047;DHT22;62025;39.238;9.126;2022-11-15T17:27:49;20.20;77.30
63047;DHT22;62025;39.238;9.126;2022-11-15T17:30:15;20.30;76.70
63047;DHT22;62025;39.238;9.126;2022-11-15T17:32:43;20.30;76.30
63047;DHT22;62025;39.238;9.126;2022-11-15T17:35:10;20.40;75.50
63047;DHT22;62025;39.238;9.126;2022-11-15T17:37:39;20.40;75.10
63047;DHT22;62025;39.238;9.126;2022-11-15T17:40:06;20.40;75.00
63047;DHT22;62025;39.238;9.126;2022-11-15T17:42:32;20.40;75.30
63047;DHT22;62025;39.238;9.126;2022-11-15T17:44:58;20.30;75.60
63047;DHT22;62025;39.238;9.126;2022-11-15T17:47:24;20.30;75.80
63047;DHT22;62025;39.238;9.126;2022-11-15T17:49:50;20.30;75.90
63047;DHT22;62025;39.238;9.126;2022-11-15T17:52:16;20.30;76.00
63047;DHT22;62025;39.238;9.126;2022-11-15T17:54:42;20.30;76.00
63047;DHT22;62025;39.238;9.126;2022-11-15T17:57:09;20.30;75.90
63047;DHT22;62025;39.238;9.126;2022-11-15T17:59:35;20.30;75.70
63047;DHT22;62025;39.238;9.126;2022-11-15T18:02:01;20.30;75.80
63047;DHT22;62025;39.238;9.126;2022-11-15T18:04:27;20.20;76.10
63047;DHT22;62025;39.238;9.126;2022-11-15T18:06:53;20.20;76.10
63047;DHT22;62025;39.238;9.126;2022-11-15T18:09:20;20.20;76.10
63047;DHT22;62025;39.238;9.126;2022-11-15T18:11:47;20.20;76.20
63047;DHT22;62025;39.238;9.126;2022-11-15T18:14:17;20.20;76.00
63047;DHT22;62025;39.238;9.126;2022-11-15T18:16:43;20.20;75.90
63047;DHT22;62025;39.238;9.126;2022-11-15T18:19:10;20.20;75.90
63047;DHT22;62025;39.238;9.126;2022-11-15T18:21:39;20.10;76.00
63047;DHT22;62025;39.238;9.126;2022-11-15T18:24:29;20.20;75.90
63047;DHT22;62025;39.238;9.126;2022-11-15T18:27:01;20.10;76.00
63047;DHT22;62025;39.238;9.126;2022-11-15T18:29:28;20.10;76.00
63047;DHT22;62025;39.238;9.126;2022-11-15T18:31:54;20.10;76.00
63047;DHT22;62025;39.238;9.126;2022-11-15T18:34:22;20.10;75.90
63047;DHT22;62025;39.238;9.126;2022-11-15T18:36:51;20.00;76.00
63047;DHT22;62025;39.238;9.126;2022-11-15T18:39:17;20.00;75.90
63047;DHT22;62025;39.238;9.126;2022-11-15T18:41:44;20.10;75.80
63047;DHT22;62025;39.238;9.126;2022-11-15T18:44:14;20.10;75.70
63047;DHT22;62025;39.238;9.126;2022-11-15T18:46:41;20.10;75.30
63047;DHT22;62025;39.238;9.126;2022-11-15T18:49:11;20.00;75.50
63047;DHT22;62025;39.238;9.126;2022-11-15T18:51:38;20.00;75.50
63047;DHT22;62025;39.238;9.126;2022-11-15T18:54:10;20.00;75.30
63047;DHT22;62025;39.238;9.126;2022-11-15T18:56:37;19.90;75.10
63047;DHT22;62025;39.238;9.126;2022-11-15T18:59:04;19.90;75.20
63047;DHT22;62025;39.238;9.126;2022-11-15T19:01:36;20.00;75.20
63047;DHT22;62025;39.238;9.126;2022-11-15T19:04:08;19.90;75.20
63047;DHT22;62025;39.238;9.126;2022-11-15T19:06:40;19.90;75.30
63047;DHT22;62025;39.238;9.126;2022-11-15T19:09:08;19.90;75.40